createdAt,value
2019-06-07T00:00:40.275Z,27
2019-06-07T00:15:04.665Z,27
2019-06-07T00:30:51.868Z,27
2019-06-07T00:45:04.636Z,29
2019-06-07T01:00:04.953Z,28
2019-06-07T01:15:04.355Z,28
2019-06-07T01:30:04.897Z,28
2019-06-07T01:45:04.211Z,28
2019-06-07T02:00:04.483Z,28
2019-06-07T02:15:04.879Z,28
2019-06-07T02:30:58.171Z,29
2019-06-07T02:45:05.033Z,28
2019-06-07T03:01:01.958Z,28
2019-06-07T03:15:04.295Z,28
2019-06-07T03:31:01.279Z,28
2019-06-07T03:45:05.108Z,28
2019-06-07T04:00:04.438Z,28
2019-06-07T04:15:04.252Z,29
2019-06-07T04:30:08.733Z,30
2019-06-07T04:45:04.522Z,30
2019-06-07T05:00:56.158Z,30
2019-06-07T05:15:04.988Z,31
2019-06-07T05:31:05.475Z,31
2019-06-07T05:45:04.615Z,31
2019-06-07T06:00:04.427Z,29
2019-06-07T06:15:04.701Z,30
2019-06-07T06:30:04.248Z,29
2019-06-07T06:45:05.151Z,30
2019-06-07T07:00:05.059Z,29
2019-06-07T07:15:06.327Z,29
2019-06-07T07:30:37.687Z,30
2019-06-07T07:45:05.068Z,29
2019-06-07T08:01:12.966Z,32
2019-06-07T08:15:04.843Z,31
2019-06-07T08:31:06.629Z,34
2019-06-07T08:45:06.074Z,38
2019-06-07T09:00:47.347Z,39
2019-06-07T09:15:24.620Z,37
2019-06-07T09:30:19.150Z,32
2019-06-07T09:45:19.080Z,31
2019-06-07T10:00:43.009Z,30
2019-06-07T10:15:07.082Z,31
2019-06-07T10:30:06.474Z,31
2019-06-07T10:45:09.927Z,30
2019-06-07T11:00:05.572Z,30
2019-06-07T11:15:04.767Z,30
2019-06-07T11:30:04.241Z,31
2019-06-07T11:45:05.878Z,31
2019-06-07T12:00:04.243Z,30
2019-06-07T12:15:04.681Z,31
2019-06-07T12:30:27.200Z,30
2019-06-07T12:45:04.518Z,30
2019-06-07T13:00:04.835Z,30
2019-06-07T13:15:04.658Z,30
2019-06-07T13:30:11.287Z,30
2019-06-07T13:45:04.691Z,31
2019-06-07T14:00:11.647Z,30
2019-06-07T14:15:04.534Z,32
2019-06-07T14:30:05.120Z,30
2019-06-07T14:45:06.658Z,31
2019-06-07T15:00:12.436Z,29
2019-06-07T15:15:04.768Z,30
2019-06-07T15:30:12.020Z,29
2019-06-07T15:45:04.369Z,29
2019-06-07T16:00:04.309Z,28
2019-06-07T16:15:04.556Z,29
2019-06-07T16:30:09.831Z,28
2019-06-07T16:45:04.566Z,30
2019-06-07T17:00:04.355Z,28
2019-06-07T17:15:05.131Z,29
2019-06-07T17:30:05.141Z,29
2019-06-07T17:45:04.901Z,29
2019-06-07T18:00:29.544Z,28
2019-06-07T18:15:04.812Z,28
2019-06-07T18:30:12.298Z,28
2019-06-07T18:45:09.645Z,28
2019-06-07T19:00:04.439Z,28
2019-06-07T19:15:04.239Z,28
2019-06-07T19:30:04.258Z,28
2019-06-07T19:45:38.412Z,28
2019-06-07T20:00:19.757Z,27
2019-06-07T20:15:29.737Z,28
2019-06-07T20:30:09.921Z,28
2019-06-07T20:45:06.051Z,28
2019-06-07T21:00:22.502Z,28
2019-06-07T21:15:20.059Z,29
2019-06-07T21:30:05.285Z,28
2019-06-07T21:45:09.792Z,28
2019-06-07T22:00:05.229Z,28
2019-06-07T22:15:39.284Z,28
2019-06-07T22:30:04.329Z,28
2019-06-07T22:45:04.571Z,28
2019-06-07T23:00:19.442Z,27
2019-06-07T23:15:04.548Z,27
2019-06-07T23:30:10.737Z,28
2019-06-07T23:45:05.145Z,28
